Paris, Mississippi
Current Conditions -  °F | °C
As of 3:35 PM on Monday 24 Nov 2014 (Local Time) from KUOX Reporting Station
Clear Clear  
Wind Chill: 54°   Ceiling: Unl
Heat Index: 54°   Visibility: 10mi
Dew Point: 32°   Wind: 8mph
Humidity: 44%   Direction: 260°W
Pressure: 29.96"   Gusts: 16mph
Location:  34.18°N, 89.46°W
Report Text: KUOX 242135Z AUTO 26007G14KT 10SM CLR 12/00 A2996 RMK AO2 PWINO PNO
Loading
Personal Weather Stations






























Interactive Weather Map New forecast layout! Learn more

10-Day Weather Forecast

Advertisements
Track Severe Weather on mobile